Detall de PIREP

Printer-friendly versionPDF version

[2013/10/02 07:44:00]
Flight IATA:CT3215
Pilot Number:012
Company ICAO:CAT
Aircraft Type:B752/E
PAX:180
Aircraft Registration:PAX
Departing Airport: EKCH
Destination Airport: LEPA
Alternate Airport:LEBL
Online: VATSIM
Route:NEXEN T503 MIC UN850 NATOR UN869 MILPA UN852 VERSO UL129 LUNIK
Flight Level:F370
No Slew and time accel
No pause
Crash detect
Detect pilot in Cockpit between each 30 and 45 minutes
07:44 Zero fuel Weight: 174059 Lbs, Fuel Weight: 29642 Lbs
07:44 VATSIM:EKCH 020720Z 09012KT 9999 FEW025 09/06 Q1028 NOSIG
07:44 VATSIM:LEPA 020730Z 00000KT 9999 FEW007 24/23 Q1011 NOSIG
07:44 VOICE CATALONIAN
07:53 Parking Brakes off
08:00 Take-off
08:00 Take off Weight: 202498 Lbs
08:00 Wind: 087º @ 009 Knots Heading: 042º
08:00 POS N55º 36´ 46´´ E012º 38´ 55´´
08:00 Gear Up: 190 Knots
08:00 Flaps:2 at 190 Knots
08:00 Flaps:1 at 211 Knots
08:00 Flaps:0 at 220 Knots
08:14 TOC
08:14 Fuel Weight: 24310 Lb
08:15 Wind:353º@019 Knots Heading: 216º Ground Speed: 468 Knots Altitude 37414 ft
08:30 Wind:320º@022 Knots Heading: 204º Ground Speed: 460 Knots Altitude 37342 ft
08:45 Wind:295º@045 Knots Heading: 193º Ground Speed: 465 Knots Altitude 37227 ft
09:00 Wind:285º@091 Knots Heading: 198º Ground Speed: 458 Knots Altitude 37132 ft
09:15 Wind:285º@093 Knots Heading: 219º Ground Speed: 430 Knots Altitude 37083 ft
09:30 Wind:276º@077 Knots Heading: 191º Ground Speed: 448 Knots Altitude 37063 ft
09:45 Wind:277º@058 Knots Heading: 205º Ground Speed: 453 Knots Altitude 37004 ft
10:00 Wind:268º@051 Knots Heading: 214º Ground Speed: 440 Knots Altitude 36981 ft
10:11 TOD
10:11 Fuel Weight: 10239 Lb
10:15 Wind:255º@050 Knots Heading: 206º Ground Speed: 426 Knots Altitude 29137 ft
10:30 Wind:254º@004 Knots Heading: 259º Ground Speed: 258Knots Altitude 5656 ft
10:32 Flaps:1 at 209 Knots
10:33 Flaps:2 at 185 Knots
10:34 Flaps:3 at 176 Knots
10:34 Flaps:4 at 162 Knots
10:35 Gear Down: 164 Knots
10:35 Flaps:5 at 158 Knots
10:36 Flaps:6 at 144 Knots
10:38 TouchDown:Rate -256 ft/min Speed: 143 Knots
10:38 VATSIM:LEPA 021000Z 23006KT 190V270 9999 FEW015 28/22 Q1011 NOSIG
10:38 Land
10:38 Wind:214º@006 Knots
10:38 Heading: 241º
10:38 Flight Duration: 02:38
10:38 Landing Weight: 182302 Lbs
10:38 POS N39º 32´ 55´´ E002º 44´ 51´´
10:39 Parking brakes on
10:39 Block to Block Duration: 02:46
10:39 Final Fuel: 8154 Lbls
10:39 Spent Fuel: 21488 Lbls
10:39 Flight Length: 1107 NM
10:39 TOD Land Length: 136 NM

Exportar CSV

Powered by Drupal - Modified by Danger4k